sensor_id;sensor_type;location;lat;lon;timestamp;P1;durP1;ratioP1;P2;durP2;ratioP2
46439;SDS011;32138;50.966;6.968;2023-02-21T00:00:09;32.25;;;24.58;;
46439;SDS011;32138;50.966;6.968;2023-02-21T00:01:29;39.85;;;28.80;;
46439;SDS011;32138;50.966;6.968;2023-02-21T00:02:48;34.58;;;26.38;;
46439;SDS011;32138;50.966;6.968;2023-02-21T00:04:07;29.20;;;25.63;;
46439;SDS011;32138;50.966;6.968;2023-02-21T00:05:26;42.80;;;28.25;;
46439;SDS011;32138;50.966;6.968;2023-02-21T00:06:46;32.78;;;26.08;;
46439;SDS011;32138;50.966;6.968;2023-02-21T00:08:05;31.00;;;25.55;;
46439;SDS011;32138;50.966;6.968;2023-02-21T00:09:24;28.42;;;23.35;;
46439;SDS011;32138;50.966;6.968;2023-02-21T00:10:43;32.50;;;25.85;;
46439;SDS011;32138;50.966;6.968;2023-02-21T00:12:02;31.95;;;25.85;;
46439;SDS011;32138;50.966;6.968;2023-02-21T00:13:22;33.03;;;27.30;;
46439;SDS011;32138;50.966;6.968;2023-02-21T00:14:42;34.60;;;26.83;;
46439;SDS011;32138;50.966;6.968;2023-02-21T00:16:01;33.90;;;27.90;;
46439;SDS011;32138;50.966;6.968;2023-02-21T00:17:20;36.05;;;27.40;;
46439;SDS011;32138;50.966;6.968;2023-02-21T00:18:39;36.47;;;26.43;;
46439;SDS011;32138;50.966;6.968;2023-02-21T00:19:59;32.72;;;25.67;;
46439;SDS011;32138;50.966;6.968;2023-02-21T00:21:18;37.00;;;26.92;;
46439;SDS011;32138;50.966;6.968;2023-02-21T00:22:37;31.73;;;25.02;;
46439;SDS011;32138;50.966;6.968;2023-02-21T00:23:56;31.92;;;25.17;;
46439;SDS011;32138;50.966;6.968;2023-02-21T00:25:15;35.92;;;27.77;;
46439;SDS011;32138;50.966;6.968;2023-02-21T00:26:35;35.97;;;26.03;;
46439;SDS011;32138;50.966;6.968;2023-02-21T00:27:54;36.67;;;25.63;;
46439;SDS011;32138;50.966;6.968;2023-02-21T00:29:13;37.10;;;27.77;;
46439;SDS011;32138;50.966;6.968;2023-02-21T00:30:32;32.50;;;27.35;;
46439;SDS011;32138;50.966;6.968;2023-02-21T00:31:52;33.28;;;26.33;;
46439;SDS011;32138;50.966;6.968;2023-02-21T00:33:11;36.22;;;28.50;;
46439;SDS011;32138;50.966;6.968;2023-02-21T00:34:31;36.83;;;26.35;;
46439;SDS011;32138;50.966;6.968;2023-02-21T00:35:50;38.92;;;30.90;;
46439;SDS011;32138;50.966;6.968;2023-02-21T00:37:09;34.72;;;26.88;;
46439;SDS011;32138;50.966;6.968;2023-02-21T00:38:29;35.38;;;27.27;;
46439;SDS011;32138;50.966;6.968;2023-02-21T00:39:48;36.33;;;26.77;;
46439;SDS011;32138;50.966;6.968;2023-02-21T00:41:08;36.50;;;27.23;;
46439;SDS011;32138;50.966;6.968;2023-02-21T00:42:27;38.97;;;29.25;;
46439;SDS011;32138;50.966;6.968;2023-02-21T00:43:46;38.85;;;28.05;;
46439;SDS011;32138;50.966;6.968;2023-02-21T00:45:05;35.70;;;27.05;;
46439;SDS011;32138;50.966;6.968;2023-02-21T00:46:25;37.95;;;28.75;;
46439;SDS011;32138;50.966;6.968;2023-02-21T00:47:44;38.17;;;29.77;;
46439;SDS011;32138;50.966;6.968;2023-02-21T00:49:04;36.15;;;28.52;;
46439;SDS011;32138;50.966;6.968;2023-02-21T00:50:23;40.97;;;28.85;;
46439;SDS011;32138;50.966;6.968;2023-02-21T00:51:43;38.53;;;28.15;;
46439;SDS011;32138;50.966;6.968;2023-02-21T00:53:02;37.35;;;27.52;;
46439;SDS011;32138;50.966;6.968;2023-02-21T00:54:21;36.03;;;27.88;;
46439;SDS011;32138;50.966;6.968;2023-02-21T00:55:40;36.17;;;26.63;;
46439;SDS011;32138;50.966;6.968;2023-02-21T00:57:00;33.80;;;26.83;;
46439;SDS011;32138;50.966;6.968;2023-02-21T00:58:20;35.08;;;28.15;;
46439;SDS011;32138;50.966;6.968;2023-02-21T00:59:39;38.88;;;28.83;;
46439;SDS011;32138;50.966;6.968;2023-02-21T01:00:58;34.80;;;28.85;;
46439;SDS011;32138;50.966;6.968;2023-02-21T01:02:18;37.08;;;28.40;;
46439;SDS011;32138;50.966;6.968;2023-02-21T01:03:37;38.90;;;28.58;;
46439;SDS011;32138;50.966;6.968;2023-02-21T01:04:57;38.27;;;27.20;;
46439;SDS011;32138;50.966;6.968;2023-02-21T01:06:16;33.50;;;27.30;;
46439;SDS011;32138;50.966;6.968;2023-02-21T01:07:35;38.85;;;27.85;;
46439;SDS011;32138;50.966;6.968;2023-02-21T01:08:55;37.50;;;30.10;;
46439;SDS011;32138;50.966;6.968;2023-02-21T01:10:14;34.30;;;26.92;;
46439;SDS011;32138;50.966;6.968;2023-02-21T01:11:33;37.33;;;29.08;;
46439;SDS011;32138;50.966;6.968;2023-02-21T01:12:53;44.33;;;29.30;;
46439;SDS011;32138;50.966;6.968;2023-02-21T01:14:12;33.15;;;28.00;;
46439;SDS011;32138;50.966;6.968;2023-02-21T01:15:32;35.15;;;28.73;;
46439;SDS011;32138;50.966;6.968;2023-02-21T01:16:51;34.03;;;27.42;;
46439;SDS011;32138;50.966;6.968;2023-02-21T01:18:10;35.87;;;27.83;;
46439;SDS011;32138;50.966;6.968;2023-02-21T01:19:30;34.75;;;28.15;;
46439;SDS011;32138;50.966;6.968;2023-02-21T01:20:49;37.53;;;27.33;;
46439;SDS011;32138;50.966;6.968;2023-02-21T01:22:09;35.75;;;26.40;;
46439;SDS011;32138;50.966;6.968;2023-02-21T01:23:28;34.63;;;28.17;;
46439;SDS011;32138;50.966;6.968;2023-02-21T01:24:48;37.87;;;27.93;;
46439;SDS011;32138;50.966;6.968;2023-02-21T01:26:08;36.85;;;28.58;;
46439;SDS011;32138;50.966;6.968;2023-02-21T01:27:28;36.13;;;28.20;;
46439;SDS011;32138;50.966;6.968;2023-02-21T01:28:47;38.15;;;28.95;;
46439;SDS011;32138;50.966;6.968;2023-02-21T01:30:06;34.58;;;27.80;;
46439;SDS011;32138;50.966;6.968;2023-02-21T01:31:26;39.47;;;28.52;;
46439;SDS011;32138;50.966;6.968;2023-02-21T01:32:45;37.38;;;28.45;;
46439;SDS011;32138;50.966;6.968;2023-02-21T01:34:04;39.22;;;29.73;;
46439;SDS011;32138;50.966;6.968;2023-02-21T01:35:23;38.17;;;30.23;;
46439;SDS011;32138;50.966;6.968;2023-02-21T01:36:42;37.20;;;29.98;;
46439;SDS011;32138;50.966;6.968;2023-02-21T01:38:02;41.10;;;29.50;;
46439;SDS011;32138;50.966;6.968;2023-02-21T01:39:21;41.80;;;31.13;;
46439;SDS011;32138;50.966;6.968;2023-02-21T01:40:41;39.55;;;27.85;;
46439;SDS011;32138;50.966;6.968;2023-02-21T01:42:00;39.20;;;29.50;;
46439;SDS011;32138;50.966;6.968;2023-02-21T01:43:21;47.13;;;32.55;;
46439;SDS011;32138;50.966;6.968;2023-02-21T01:44:43;42.78;;;30.75;;
46439;SDS011;32138;50.966;6.968;2023-02-21T01:46:05;42.50;;;31.80;;
46439;SDS011;32138;50.966;6.968;2023-02-21T01:47:43;43.78;;;33.63;;
46439;SDS011;32138;50.966;6.968;2023-02-21T01:49:07;45.23;;;33.20;;
46439;SDS011;32138;50.966;6.968;2023-02-21T01:50:33;42.78;;;31.67;;
46439;SDS011;32138;50.966;6.968;2023-02-21T01:51:52;41.33;;;32.63;;
46439;SDS011;32138;50.966;6.968;2023-02-21T01:53:14;37.70;;;30.10;;
46439;SDS011;32138;50.966;6.968;2023-02-21T01:54:41;43.38;;;30.38;;
46439;SDS011;32138;50.966;6.968;2023-02-21T01:56:05;45.75;;;33.70;;
46439;SDS011;32138;50.966;6.968;2023-02-21T01:57:26;39.47;;;29.83;;
46439;SDS011;32138;50.966;6.968;2023-02-21T01:58:46;43.28;;;31.75;;
46439;SDS011;32138;50.966;6.968;2023-02-21T02:00:08;39.63;;;31.13;;
46439;SDS011;32138;50.966;6.968;2023-02-21T02:01:36;40.40;;;32.08;;
46439;SDS011;32138;50.966;6.968;2023-02-21T02:03:22;40.67;;;30.08;;
46439;SDS011;32138;50.966;6.968;2023-02-21T02:04:43;41.75;;;30.95;;
46439;SDS011;32138;50.966;6.968;2023-02-21T02:06:08;44.80;;;35.22;;
46439;SDS011;32138;50.966;6.968;2023-02-21T02:07:31;47.95;;;34.05;;
46439;SDS011;32138;50.966;6.968;2023-02-21T02:08:52;43.35;;;35.22;;
46439;SDS011;32138;50.966;6.968;2023-02-21T02:10:12;42.13;;;32.33;;
46439;SDS011;32138;50.966;6.968;2023-02-21T02:24:10;55.25;;;40.10;;
46439;SDS011;32138;50.966;6.968;2023-02-21T02:26:14;44.83;;;32.67;;
46439;SDS011;32138;50.966;6.968;2023-02-21T02:29:44;48.40;;;37.20;;
46439;SDS011;32138;50.966;6.968;2023-02-21T02:35:45;46.83;;;34.80;;
46439;SDS011;32138;50.966;6.968;2023-02-21T02:38:33;49.40;;;36.40;;
46439;SDS011;32138;50.966;6.968;2023-02-21T02:41:13;50.70;;;37.78;;
46439;SDS011;32138;50.966;6.968;2023-02-21T02:44:12;48.30;;;35.28;;
46439;SDS011;32138;50.966;6.968;2023-02-21T02:45:32;52.72;;;37.53;;
46439;SDS011;32138;50.966;6.968;2023-02-21T02:46:44;49.45;;;36.00;;
46439;SDS011;32138;50.966;6.968;2023-02-21T02:47:49;52.10;;;39.30;;
46439;SDS011;32138;50.966;6.968;2023-02-21T02:49:07;52.10;;;37.00;;
46439;SDS011;32138;50.966;6.968;2023-02-21T02:50:15;47.38;;;36.40;;
46439;SDS011;32138;50.966;6.968;2023-02-21T02:51:17;50.40;;;39.05;;
46439;SDS011;32138;50.966;6.968;2023-02-21T02:52:18;46.95;;;36.20;;
46439;SDS011;32138;50.966;6.968;2023-02-21T02:53:20;49.38;;;36.75;;
46439;SDS011;32138;50.966;6.968;2023-02-21T02:54:25;48.70;;;35.70;;
46439;SDS011;32138;50.966;6.968;2023-02-21T02:56:58;58.63;;;37.88;;
46439;SDS011;32138;50.966;6.968;2023-02-21T02:58:02;51.80;;;38.97;;
46439;SDS011;32138;50.966;6.968;2023-02-21T02:59:11;50.60;;;36.92;;
46439;SDS011;32138;50.966;6.968;2023-02-21T03:00:21;51.88;;;37.42;;
46439;SDS011;32138;50.966;6.968;2023-02-21T03:02:36;52.55;;;38.08;;
46439;SDS011;32138;50.966;6.968;2023-02-21T03:07:49;47.25;;;35.20;;
46439;SDS011;32138;50.966;6.968;2023-02-21T03:12:24;48.40;;;35.30;;
46439;SDS011;32138;50.966;6.968;2023-02-21T03:15:00;47.70;;;36.35;;
46439;SDS011;32138;50.966;6.968;2023-02-21T03:17:23;52.60;;;36.85;;
46439;SDS011;32138;50.966;6.968;2023-02-21T03:18:47;55.67;;;38.45;;
46439;SDS011;32138;50.966;6.968;2023-02-21T03:19:53;55.33;;;36.10;;
46439;SDS011;32138;50.966;6.968;2023-02-21T03:20:56;52.78;;;38.85;;
46439;SDS011;32138;50.966;6.968;2023-02-21T03:22:04;49.17;;;36.13;;
46439;SDS011;32138;50.966;6.968;2023-02-21T03:23:10;51.33;;;36.47;;
46439;SDS011;32138;50.966;6.968;2023-02-21T03:24:13;50.05;;;36.53;;
46439;SDS011;32138;50.966;6.968;2023-02-21T03:25:18;50.83;;;36.10;;
46439;SDS011;32138;50.966;6.968;2023-02-21T03:26:20;53.63;;;38.38;;
46439;SDS011;32138;50.966;6.968;2023-02-21T03:27:21;46.35;;;33.53;;
46439;SDS011;32138;50.966;6.968;2023-02-21T03:28:23;50.58;;;36.90;;
46439;SDS011;32138;50.966;6.968;2023-02-21T03:29:24;49.35;;;34.67;;
46439;SDS011;32138;50.966;6.968;2023-02-21T03:30:27;51.58;;;36.85;;
46439;SDS011;32138;50.966;6.968;2023-02-21T03:31:29;50.25;;;36.75;;
46439;SDS011;32138;50.966;6.968;2023-02-21T03:32:46;46.65;;;34.17;;
46439;SDS011;32138;50.966;6.968;2023-02-21T03:33:50;52.50;;;36.63;;
46439;SDS011;32138;50.966;6.968;2023-02-21T03:34:52;48.10;;;34.45;;
46439;SDS011;32138;50.966;6.968;2023-02-21T03:35:53;48.53;;;34.08;;
46439;SDS011;32138;50.966;6.968;2023-02-21T03:36:54;52.45;;;35.13;;
46439;SDS011;32138;50.966;6.968;2023-02-21T03:37:55;50.40;;;34.75;;
46439;SDS011;32138;50.966;6.968;2023-02-21T03:38:57;47.55;;;34.30;;
46439;SDS011;32138;50.966;6.968;2023-02-21T03:39:58;47.38;;;33.28;;
46439;SDS011;32138;50.966;6.968;2023-02-21T03:41:00;45.72;;;34.03;;
46439;SDS011;32138;50.966;6.968;2023-02-21T03:42:00;44.13;;;33.17;;
46439;SDS011;32138;50.966;6.968;2023-02-21T03:43:03;50.10;;;33.35;;
46439;SDS011;32138;50.966;6.968;2023-02-21T03:44:06;49.90;;;33.83;;
46439;SDS011;32138;50.966;6.968;2023-02-21T03:45:07;49.65;;;32.92;;
46439;SDS011;32138;50.966;6.968;2023-02-21T03:46:09;45.15;;;31.13;;
46439;SDS011;32138;50.966;6.968;2023-02-21T03:47:09;53.22;;;33.65;;
46439;SDS011;32138;50.966;6.968;2023-02-21T03:48:10;45.45;;;29.92;;
46439;SDS011;32138;50.966;6.968;2023-02-21T03:49:11;45.55;;;32.10;;
46439;SDS011;32138;50.966;6.968;2023-02-21T03:50:12;44.17;;;31.13;;
46439;SDS011;32138;50.966;6.968;2023-02-21T03:51:13;51.15;;;34.22;;
46439;SDS011;32138;50.966;6.968;2023-02-21T03:52:14;53.65;;;34.75;;
46439;SDS011;32138;50.966;6.968;2023-02-21T03:53:15;55.28;;;34.92;;
46439;SDS011;32138;50.966;6.968;2023-02-21T03:54:16;52.08;;;33.17;;
46439;SDS011;32138;50.966;6.968;2023-02-21T03:55:17;45.88;;;32.17;;
46439;SDS011;32138;50.966;6.968;2023-02-21T03:56:18;47.35;;;31.48;;
46439;SDS011;32138;50.966;6.968;2023-02-21T03:57:19;52.35;;;31.40;;
46439;SDS011;32138;50.966;6.968;2023-02-21T03:58:19;45.28;;;31.30;;
46439;SDS011;32138;50.966;6.968;2023-02-21T03:59:20;51.38;;;32.88;;
46439;SDS011;32138;50.966;6.968;2023-02-21T04:00:21;44.33;;;30.67;;
46439;SDS011;32138;50.966;6.968;2023-02-21T04:01:22;45.17;;;31.27;;
46439;SDS011;32138;50.966;6.968;2023-02-21T04:02:22;47.60;;;31.95;;
46439;SDS011;32138;50.966;6.968;2023-02-21T04:03:23;51.22;;;31.73;;
46439;SDS011;32138;50.966;6.968;2023-02-21T04:04:25;47.33;;;31.80;;
46439;SDS011;32138;50.966;6.968;2023-02-21T04:05:25;50.42;;;31.50;;
46439;SDS011;32138;50.966;6.968;2023-02-21T04:06:26;43.28;;;30.33;;
46439;SDS011;32138;50.966;6.968;2023-02-21T04:07:27;48.47;;;31.23;;
46439;SDS011;32138;50.966;6.968;2023-02-21T04:08:29;41.35;;;29.00;;
46439;SDS011;32138;50.966;6.968;2023-02-21T04:09:30;46.38;;;30.55;;
46439;SDS011;32138;50.966;6.968;2023-02-21T04:10:31;41.70;;;29.63;;
46439;SDS011;32138;50.966;6.968;2023-02-21T04:11:32;45.95;;;30.50;;
46439;SDS011;32138;50.966;6.968;2023-02-21T04:12:34;44.20;;;29.35;;
46439;SDS011;32138;50.966;6.968;2023-02-21T04:13:35;46.83;;;29.67;;
46439;SDS011;32138;50.966;6.968;2023-02-21T04:14:35;43.53;;;29.73;;
46439;SDS011;32138;50.966;6.968;2023-02-21T04:15:36;45.70;;;31.27;;
46439;SDS011;32138;50.966;6.968;2023-02-21T04:16:37;43.65;;;30.55;;
46439;SDS011;32138;50.966;6.968;2023-02-21T04:17:38;49.38;;;31.50;;
46439;SDS011;32138;50.966;6.968;2023-02-21T04:18:39;47.40;;;31.70;;
46439;SDS011;32138;50.966;6.968;2023-02-21T04:19:39;43.63;;;29.98;;
46439;SDS011;32138;50.966;6.968;2023-02-21T04:20:40;46.80;;;30.20;;
46439;SDS011;32138;50.966;6.968;2023-02-21T04:21:41;42.47;;;29.23;;
46439;SDS011;32138;50.966;6.968;2023-02-21T04:22:42;47.47;;;32.03;;
46439;SDS011;32138;50.966;6.968;2023-02-21T04:23:43;44.47;;;30.27;;
46439;SDS011;32138;50.966;6.968;2023-02-21T04:24:43;44.60;;;30.80;;
46439;SDS011;32138;50.966;6.968;2023-02-21T04:25:44;43.83;;;30.42;;
46439;SDS011;32138;50.966;6.968;2023-02-21T04:26:45;41.50;;;27.70;;
46439;SDS011;32138;50.966;6.968;2023-02-21T04:27:46;45.03;;;30.65;;
46439;SDS011;32138;50.966;6.968;2023-02-21T04:28:47;45.13;;;31.02;;
46439;SDS011;32138;50.966;6.968;2023-02-21T04:29:47;47.05;;;31.00;;
46439;SDS011;32138;50.966;6.968;2023-02-21T04:30:48;42.25;;;28.95;;
46439;SDS011;32138;50.966;6.968;2023-02-21T04:31:49;44.08;;;29.15;;
46439;SDS011;32138;50.966;6.968;2023-02-21T04:32:50;41.90;;;29.38;;
46439;SDS011;32138;50.966;6.968;2023-02-21T04:33:51;42.47;;;30.13;;
46439;SDS011;32138;50.966;6.968;2023-02-21T04:34:52;43.28;;;30.13;;
46439;SDS011;32138;50.966;6.968;2023-02-21T04:35:53;45.88;;;29.35;;
46439;SDS011;32138;50.966;6.968;2023-02-21T04:36:53;41.13;;;28.85;;
46439;SDS011;32138;50.966;6.968;2023-02-21T04:37:54;45.28;;;29.98;;
46439;SDS011;32138;50.966;6.968;2023-02-21T04:38:55;43.38;;;30.15;;
46439;SDS011;32138;50.966;6.968;2023-02-21T04:39:56;42.83;;;30.15;;
46439;SDS011;32138;50.966;6.968;2023-02-21T04:40:57;43.00;;;28.90;;
46439;SDS011;32138;50.966;6.968;2023-02-21T04:41:57;41.65;;;29.90;;
46439;SDS011;32138;50.966;6.968;2023-02-21T04:42:58;44.45;;;30.38;;
46439;SDS011;32138;50.966;6.968;2023-02-21T04:43:59;43.88;;;30.85;;
46439;SDS011;32138;50.966;6.968;2023-02-21T04:44:59;51.60;;;31.88;;
46439;SDS011;32138;50.966;6.968;2023-02-21T04:46:00;46.38;;;29.45;;
46439;SDS011;32138;50.966;6.968;2023-02-21T04:47:01;44.85;;;30.70;;
46439;SDS011;32138;50.966;6.968;2023-02-21T04:48:01;43.30;;;30.55;;
46439;SDS011;32138;50.966;6.968;2023-02-21T04:49:02;42.70;;;29.25;;
46439;SDS011;32138;50.966;6.968;2023-02-21T04:50:05;45.72;;;30.45;;
46439;SDS011;32138;50.966;6.968;2023-02-21T04:51:06;49.50;;;31.48;;
46439;SDS011;32138;50.966;6.968;2023-02-21T04:52:07;40.78;;;29.58;;
46439;SDS011;32138;50.966;6.968;2023-02-21T04:53:07;49.17;;;30.75;;
46439;SDS011;32138;50.966;6.968;2023-02-21T04:54:08;50.15;;;33.33;;
46439;SDS011;32138;50.966;6.968;2023-02-21T04:55:09;45.58;;;29.85;;
46439;SDS011;32138;50.966;6.968;2023-02-21T04:56:10;47.38;;;30.73;;
46439;SDS011;32138;50.966;6.968;2023-02-21T04:57:11;42.05;;;29.17;;
46439;SDS011;32138;50.966;6.968;2023-02-21T04:58:13;44.13;;;30.20;;
46439;SDS011;32138;50.966;6.968;2023-02-21T04:59:14;49.63;;;31.10;;
46439;SDS011;32138;50.966;6.968;2023-02-21T05:00:14;42.78;;;30.20;;
46439;SDS011;32138;50.966;6.968;2023-02-21T05:01:16;43.58;;;29.83;;
46439;SDS011;32138;50.966;6.968;2023-02-21T05:02:18;46.28;;;30.17;;
46439;SDS011;32138;50.966;6.968;2023-02-21T05:03:18;49.22;;;32.10;;
46439;SDS011;32138;50.966;6.968;2023-02-21T05:04:20;48.90;;;31.75;;
46439;SDS011;32138;50.966;6.968;2023-02-21T05:05:21;44.88;;;30.63;;
46439;SDS011;32138;50.966;6.968;2023-02-21T05:06:22;40.53;;;28.48;;
46439;SDS011;32138;50.966;6.968;2023-02-21T05:07:25;43.75;;;29.27;;
46439;SDS011;32138;50.966;6.968;2023-02-21T05:08:26;39.28;;;27.85;;
46439;SDS011;32138;50.966;6.968;2023-02-21T05:09:27;44.58;;;30.33;;
46439;SDS011;32138;50.966;6.968;2023-02-21T05:10:27;43.75;;;30.08;;
46439;SDS011;32138;50.966;6.968;2023-02-21T05:11:32;41.92;;;30.55;;
46439;SDS011;32138;50.966;6.968;2023-02-21T05:12:34;43.58;;;31.02;;
46439;SDS011;32138;50.966;6.968;2023-02-21T05:13:36;43.30;;;31.60;;
46439;SDS011;32138;50.966;6.968;2023-02-21T05:14:38;42.45;;;30.27;;
46439;SDS011;32138;50.966;6.968;2023-02-21T05:15:39;43.25;;;30.13;;
46439;SDS011;32138;50.966;6.968;2023-02-21T05:16:40;42.60;;;29.00;;
46439;SDS011;32138;50.966;6.968;2023-02-21T05:17:41;41.28;;;29.52;;
46439;SDS011;32138;50.966;6.968;2023-02-21T05:18:42;45.72;;;30.25;;
46439;SDS011;32138;50.966;6.968;2023-02-21T05:19:45;40.05;;;29.40;;
46439;SDS011;32138;50.966;6.968;2023-02-21T05:20:46;45.97;;;31.00;;
46439;SDS011;32138;50.966;6.968;2023-02-21T05:21:50;46.42;;;31.10;;
46439;SDS011;32138;50.966;6.968;2023-02-21T05:22:51;43.25;;;28.60;;
46439;SDS011;32138;50.966;6.968;2023-02-21T05:23:52;44.63;;;29.50;;
46439;SDS011;32138;50.966;6.968;2023-02-21T05:24:55;43.03;;;29.80;;
46439;SDS011;32138;50.966;6.968;2023-02-21T05:25:56;43.47;;;31.23;;
46439;SDS011;32138;50.966;6.968;2023-02-21T05:26:57;44.75;;;31.40;;
46439;SDS011;32138;50.966;6.968;2023-02-21T05:27:58;43.63;;;30.38;;
46439;SDS011;32138;50.966;6.968;2023-02-21T05:28:59;46.45;;;28.77;;
46439;SDS011;32138;50.966;6.968;2023-02-21T05:29:59;40.17;;;28.67;;
46439;SDS011;32138;50.966;6.968;2023-02-21T05:31:00;41.70;;;28.55;;
46439;SDS011;32138;50.966;6.968;2023-02-21T05:32:01;43.55;;;30.48;;
46439;SDS011;32138;50.966;6.968;2023-02-21T05:33:03;40.22;;;29.08;;
46439;SDS011;32138;50.966;6.968;2023-02-21T05:34:03;42.10;;;29.10;;
46439;SDS011;32138;50.966;6.968;2023-02-21T05:35:04;38.72;;;28.90;;
46439;SDS011;32138;50.966;6.968;2023-02-21T05:36:06;50.05;;;32.40;;
46439;SDS011;32138;50.966;6.968;2023-02-21T05:37:07;43.10;;;30.10;;
46439;SDS011;32138;50.966;6.968;2023-02-21T05:38:07;41.17;;;29.00;;
46439;SDS011;32138;50.966;6.968;2023-02-21T05:39:08;40.78;;;29.90;;
46439;SDS011;32138;50.966;6.968;2023-02-21T05:40:09;44.88;;;30.65;;
46439;SDS011;32138;50.966;6.968;2023-02-21T05:41:11;41.45;;;28.08;;
46439;SDS011;32138;50.966;6.968;2023-02-21T05:42:12;42.17;;;29.05;;
46439;SDS011;32138;50.966;6.968;2023-02-21T05:43:13;37.70;;;27.73;;
46439;SDS011;32138;50.966;6.968;2023-02-21T05:44:14;46.40;;;31.05;;
46439;SDS011;32138;50.966;6.968;2023-02-21T05:45:16;45.03;;;30.33;;
46439;SDS011;32138;50.966;6.968;2023-02-21T05:46:31;43.70;;;30.83;;
46439;SDS011;32138;50.966;6.968;2023-02-21T05:47:33;43.45;;;28.50;;
46439;SDS011;32138;50.966;6.968;2023-02-21T05:48:34;42.25;;;29.83;;
46439;SDS011;32138;50.966;6.968;2023-02-21T05:49:35;40.83;;;27.60;;
46439;SDS011;32138;50.966;6.968;2023-02-21T05:50:36;42.55;;;30.42;;
46439;SDS011;32138;50.966;6.968;2023-02-21T05:51:40;39.60;;;28.05;;
46439;SDS011;32138;50.966;6.968;2023-02-21T05:52:42;39.28;;;29.17;;
46439;SDS011;32138;50.966;6.968;2023-02-21T05:53:43;42.85;;;30.08;;
46439;SDS011;32138;50.966;6.968;2023-02-21T05:54:45;40.85;;;29.10;;
46439;SDS011;32138;50.966;6.968;2023-02-21T05:55:45;44.95;;;30.52;;
46439;SDS011;32138;50.966;6.968;2023-02-21T05:56:47;49.85;;;31.40;;
46439;SDS011;32138;50.966;6.968;2023-02-21T05:58:51;43.55;;;30.27;;
46439;SDS011;32138;50.966;6.968;2023-02-21T05:59:52;40.10;;;29.30;;
46439;SDS011;32138;50.966;6.968;2023-02-21T06:00:53;43.60;;;30.02;;
46439;SDS011;32138;50.966;6.968;2023-02-21T06:01:54;43.60;;;30.55;;
46439;SDS011;32138;50.966;6.968;2023-02-21T06:02:55;43.13;;;30.92;;
46439;SDS011;32138;50.966;6.968;2023-02-21T06:03:56;43.88;;;30.80;;
46439;SDS011;32138;50.966;6.968;2023-02-21T06:04:57;41.88;;;28.98;;
46439;SDS011;32138;50.966;6.968;2023-02-21T06:05:58;43.47;;;29.70;;
46439;SDS011;32138;50.966;6.968;2023-02-21T06:06:59;47.83;;;30.27;;
46439;SDS011;32138;50.966;6.968;2023-02-21T06:08:00;42.22;;;29.30;;
46439;SDS011;32138;50.966;6.968;2023-02-21T06:09:02;47.38;;;31.40;;
46439;SDS011;32138;50.966;6.968;2023-02-21T06:10:03;45.22;;;30.25;;
46439;SDS011;32138;50.966;6.968;2023-02-21T06:11:04;42.35;;;30.30;;
46439;SDS011;32138;50.966;6.968;2023-02-21T06:12:05;40.88;;;28.35;;
46439;SDS011;32138;50.966;6.968;2023-02-21T06:13:06;43.03;;;28.85;;
46439;SDS011;32138;50.966;6.968;2023-02-21T06:14:11;43.20;;;29.77;;
46439;SDS011;32138;50.966;6.968;2023-02-21T06:15:17;44.33;;;29.48;;
46439;SDS011;32138;50.966;6.968;2023-02-21T06:16:18;41.47;;;30.55;;
46439;SDS011;32138;50.966;6.968;2023-02-21T06:17:19;42.25;;;29.55;;
46439;SDS011;32138;50.966;6.968;2023-02-21T06:18:20;41.78;;;29.67;;
46439;SDS011;32138;50.966;6.968;2023-02-21T06:19:21;39.78;;;29.17;;
46439;SDS011;32138;50.966;6.968;2023-02-21T06:20:22;49.33;;;30.02;;
46439;SDS011;32138;50.966;6.968;2023-02-21T06:21:23;40.75;;;28.40;;
46439;SDS011;32138;50.966;6.968;2023-02-21T06:22:23;42.55;;;29.48;;
46439;SDS011;32138;50.966;6.968;2023-02-21T06:23:24;42.05;;;28.25;;
46439;SDS011;32138;50.966;6.968;2023-02-21T06:24:25;38.33;;;28.52;;
46439;SDS011;32138;50.966;6.968;2023-02-21T06:25:26;42.35;;;29.58;;
46439;SDS011;32138;50.966;6.968;2023-02-21T06:26:27;40.85;;;27.75;;
46439;SDS011;32138;50.966;6.968;2023-02-21T06:27:28;43.55;;;29.95;;
46439;SDS011;32138;50.966;6.968;2023-02-21T06:28:29;40.00;;;28.33;;
46439;SDS011;32138;50.966;6.968;2023-02-21T06:29:30;40.22;;;28.98;;
46439;SDS011;32138;50.966;6.968;2023-02-21T06:30:31;44.75;;;29.85;;
46439;SDS011;32138;50.966;6.968;2023-02-21T06:31:31;42.10;;;29.77;;
46439;SDS011;32138;50.966;6.968;2023-02-21T06:32:32;42.13;;;29.30;;
46439;SDS011;32138;50.966;6.968;2023-02-21T06:33:33;44.13;;;29.23;;
46439;SDS011;32138;50.966;6.968;2023-02-21T06:34:34;42.25;;;29.55;;
46439;SDS011;32138;50.966;6.968;2023-02-21T06:35:35;45.22;;;30.85;;
46439;SDS011;32138;50.966;6.968;2023-02-21T06:36:35;41.50;;;30.38;;
46439;SDS011;32138;50.966;6.968;2023-02-21T06:37:38;47.83;;;31.70;;
46439;SDS011;32138;50.966;6.968;2023-02-21T06:38:38;44.83;;;32.08;;
46439;SDS011;32138;50.966;6.968;2023-02-21T06:39:39;43.70;;;30.77;;
46439;SDS011;32138;50.966;6.968;2023-02-21T06:40:40;43.47;;;29.60;;
46439;SDS011;32138;50.966;6.968;2023-02-21T06:41:41;44.15;;;30.30;;
46439;SDS011;32138;50.966;6.968;2023-02-21T06:42:41;46.58;;;32.97;;
46439;SDS011;32138;50.966;6.968;2023-02-21T06:43:42;45.40;;;30.48;;
46439;SDS011;32138;50.966;6.968;2023-02-21T06:44:46;45.72;;;31.10;;
46439;SDS011;32138;50.966;6.968;2023-02-21T06:45:48;43.75;;;30.35;;
46439;SDS011;32138;50.966;6.968;2023-02-21T06:46:49;43.70;;;30.45;;
46439;SDS011;32138;50.966;6.968;2023-02-21T06:47:53;46.05;;;31.40;;
46439;SDS011;32138;50.966;6.968;2023-02-21T06:48:54;47.75;;;32.55;;
46439;SDS011;32138;50.966;6.968;2023-02-21T06:49:56;50.92;;;35.08;;
46439;SDS011;32138;50.966;6.968;2023-02-21T06:50:57;49.50;;;34.95;;
46439;SDS011;32138;50.966;6.968;2023-02-21T06:51:59;56.58;;;33.88;;
46439;SDS011;32138;50.966;6.968;2023-02-21T06:53:00;56.38;;;37.10;;
46439;SDS011;32138;50.966;6.968;2023-02-21T06:54:01;50.90;;;33.15;;
46439;SDS011;32138;50.966;6.968;2023-02-21T06:55:03;55.05;;;37.03;;
46439;SDS011;32138;50.966;6.968;2023-02-21T06:56:04;56.53;;;37.28;;
46439;SDS011;32138;50.966;6.968;2023-02-21T06:57:06;51.80;;;34.67;;
46439;SDS011;32138;50.966;6.968;2023-02-21T06:58:07;49.65;;;34.90;;
46439;SDS011;32138;50.966;6.968;2023-02-21T06:59:09;49.10;;;33.08;;
46439;SDS011;32138;50.966;6.968;2023-02-21T07:00:10;45.47;;;33.35;;
46439;SDS011;32138;50.966;6.968;2023-02-21T07:01:12;52.13;;;32.67;;
46439;SDS011;32138;50.966;6.968;2023-02-21T07:02:17;46.78;;;31.88;;
46439;SDS011;32138;50.966;6.968;2023-02-21T07:03:19;49.55;;;32.08;;
46439;SDS011;32138;50.966;6.968;2023-02-21T07:04:20;51.70;;;33.58;;
46439;SDS011;32138;50.966;6.968;2023-02-21T07:05:22;56.33;;;34.92;;
46439;SDS011;32138;50.966;6.968;2023-02-21T07:06:23;47.88;;;33.67;;
46439;SDS011;32138;50.966;6.968;2023-02-21T07:07:24;47.05;;;32.63;;
46439;SDS011;32138;50.966;6.968;2023-02-21T07:08:25;51.83;;;34.33;;
46439;SDS011;32138;50.966;6.968;2023-02-21T07:09:26;47.88;;;32.13;;
46439;SDS011;32138;50.966;6.968;2023-02-21T07:10:28;51.92;;;34.42;;
46439;SDS011;32138;50.966;6.968;2023-02-21T07:11:32;50.50;;;33.30;;
46439;SDS011;32138;50.966;6.968;2023-02-21T07:12:34;63.72;;;36.97;;